Time;durP1;ratioP1;P1;durP2;ratioP2;P2;SDS_P1;SDS_P2;PMS_P1;PMS_P2;Temp;Humidity;BMP_temperature;BMP_pressure;BME280_temperature;BME280_humidity;BME280_pressure;Samples;Min_cycle;Max_cycle;Signal;HPM_P1;HPM_P2
2022/08/28 00:00:34;;;;;;;7.45;4.93;;;12.30;99.90;;;;;;5028160;28;20069;-32
2022/08/28 00:03:00;;;;;;;9.27;4.85;;;12.30;99.90;;;;;;5003839;28;20546;-31
2022/08/28 00:05:29;;;;;;;8.23;5.00;;;12.30;99.90;;;;;;5021716;28;20034;-32
2022/08/28 00:07:56;;;;;;;10.25;4.85;;;12.30;99.90;;;;;;5023110;28;20070;-32
2022/08/28 00:10:23;;;;;;;8.43;4.90;;;12.30;99.90;;;;;;5026452;28;20045;-32
2022/08/28 00:12:50;;;;;;;10.98;5.53;;;12.30;99.90;;;;;;5037621;28;20037;-31
2022/08/28 00:15:19;;;;;;;12.10;5.68;;;12.20;99.90;;;;;;5021498;28;20029;-31
2022/08/28 00:17:45;;;;;;;11.23;5.40;;;12.20;99.90;;;;;;5022943;28;20036;-32
2022/08/28 00:20:14;;;;;;;9.95;6.10;;;12.20;99.90;;;;;;5029371;28;20120;-33
2022/08/28 00:22:40;;;;;;;8.00;5.43;;;12.20;99.90;;;;;;5040412;28;20085;-33
2022/08/28 00:25:08;;;;;;;10.88;5.97;;;12.20;99.90;;;;;;5017887;28;20042;-33
2022/08/28 00:27:52;;;;;;;9.35;5.25;;;12.20;99.90;;;;;;5029124;28;20038;-33
2022/08/28 00:30:36;;;;;;;10.05;5.20;;;12.20;99.90;;;;;;5023389;28;20041;-31
2022/08/28 00:33:07;;;;;;;8.02;5.20;;;12.10;99.90;;;;;;5023577;28;20452;-32
2022/08/28 00:35:33;;;;;;;9.65;5.95;;;12.10;99.90;;;;;;5026190;28;20040;-32
2022/08/28 00:37:59;;;;;;;8.65;4.80;;;12.10;99.90;;;;;;5021337;28;20040;-33
2022/08/28 00:40:29;;;;;;;8.23;5.22;;;12.10;99.90;;;;;;5014875;28;20042;-31
2022/08/28 00:42:56;;;;;;;10.77;5.22;;;12.10;99.90;;;;;;5023760;28;20099;-32
2022/08/28 00:45:23;;;;;;;10.57;5.72;;;12.00;99.90;;;;;;5028087;28;20073;-32
2022/08/28 00:47:49;;;;;;;10.32;5.70;;;12.10;99.90;;;;;;5004792;28;20048;-32
2022/08/28 00:50:18;;;;;;;7.78;5.47;;;12.00;99.90;;;;;;5047041;28;20422;-32
2022/08/28 00:52:50;;;;;;;10.13;5.07;;;12.00;99.90;;;;;;5032987;28;20038;-32
2022/08/28 00:55:21;;;;;;;9.38;5.35;;;12.00;99.90;;;;;;5025826;28;20037;-32
2022/08/28 00:57:50;;;;;;;7.82;5.30;;;12.00;99.90;;;;;;5041270;28;20398;-31
2022/08/28 01:00:32;;;;;;;7.78;4.75;;;12.00;99.90;;;;;;5044540;28;20040;-32
2022/08/28 01:02:59;;;;;;;8.85;5.25;;;12.00;99.90;;;;;;5021523;28;20045;-32
2022/08/28 01:05:27;;;;;;;9.93;5.30;;;12.00;99.90;;;;;;5025076;28;20048;-33
2022/08/28 01:07:54;;;;;;;8.15;5.28;;;11.90;99.90;;;;;;5030441;28;20029;-32
2022/08/28 01:10:23;;;;;;;6.30;4.63;;;11.90;99.90;;;;;;5029693;28;20045;-30
2022/08/28 01:12:53;;;;;;;7.35;5.05;;;11.90;99.90;;;;;;5021490;28;20037;-32
2022/08/28 01:15:23;;;;;;;8.10;5.35;;;11.90;99.90;;;;;;5025711;28;20315;-32
2022/08/28 01:17:53;;;;;;;10.57;5.00;;;11.80;99.90;;;;;;5032811;28;20387;-32
2022/08/28 01:20:24;;;;;;;9.27;5.50;;;11.80;99.90;;;;;;5024462;28;20044;-32
2022/08/28 01:23:12;;;;;;;12.00;4.85;;;11.80;99.90;;;;;;5037883;28;20406;-31
2022/08/28 01:25:38;;;;;;;8.45;5.07;;;11.80;99.90;;;;;;5031991;28;20071;-33
2022/08/28 01:28:09;;;;;;;6.95;4.85;;;11.80;99.90;;;;;;5026973;28;20041;-32
2022/08/28 01:30:35;;;;;;;8.07;5.05;;;11.80;99.90;;;;;;5026603;28;20049;-31
2022/08/28 01:33:01;;;;;;;7.65;5.03;;;11.80;99.90;;;;;;5026281;28;20052;-31
2022/08/28 01:35:32;;;;;;;8.15;5.57;;;11.80;99.90;;;;;;5034761;28;20041;-31
2022/08/28 01:37:58;;;;;;;8.88;4.75;;;11.80;99.90;;;;;;5027236;28;20480;-32
2022/08/28 01:40:35;;;;;;;8.00;4.93;;;11.80;99.90;;;;;;5043372;28;20511;-35
2022/08/28 01:43:11;;;;;;;9.02;5.25;;;11.80;99.90;;;;;;5046978;28;20037;-32
2022/08/28 01:45:43;;;;;;;12.65;5.68;;;11.70;99.90;;;;;;5022743;28;20120;-32
2022/08/28 01:48:10;;;;;;;10.85;5.05;;;11.70;99.90;;;;;;5028235;28;20041;-32
2022/08/28 01:50:36;;;;;;;7.63;5.53;;;11.70;99.90;;;;;;5026489;28;20041;-31
2022/08/28 01:53:03;;;;;;;7.55;5.57;;;11.70;99.90;;;;;;5027563;28;20040;-31
2022/08/28 01:55:31;;;;;;;9.50;6.72;;;11.70;99.90;;;;;;5034846;28;20033;-34
2022/08/28 01:57:57;;;;;;;8.43;5.88;;;11.70;99.90;;;;;;5018861;28;20038;-30
2022/08/28 02:00:27;;;;;;;10.73;5.70;;;11.70;99.90;;;;;;5029743;28;20431;-29
2022/08/28 02:02:55;;;;;;;7.18;5.32;;;11.60;99.90;;;;;;5020611;28;20049;-29
2022/08/28 02:05:23;;;;;;;9.85;4.90;;;11.60;99.90;;;;;;5026521;28;20096;-30
2022/08/28 02:07:51;;;;;;;10.80;5.35;;;11.60;99.90;;;;;;5027329;28;20604;-29
2022/08/28 02:10:17;;;;;;;9.85;5.00;;;11.60;99.90;;;;;;5025695;28;20569;-29
2022/08/28 02:12:44;;;;;;;12.00;5.03;;;11.60;99.90;;;;;;5025366;28;20044;-29
2022/08/28 02:15:10;;;;;;;8.27;4.85;;;11.60;99.90;;;;;;5030709;28;20048;-29
2022/08/28 02:17:36;;;;;;;7.63;4.65;;;11.50;99.90;;;;;;5034515;28;20070;-29
2022/08/28 02:20:04;;;;;;;10.40;5.10;;;11.50;99.90;;;;;;5033055;28;20089;-29
2022/08/28 02:22:30;;;;;;;8.18;4.95;;;11.50;99.90;;;;;;5022393;28;20402;-30
2022/08/28 02:24:56;;;;;;;8.25;5.13;;;11.50;99.90;;;;;;5045216;28;20041;-29
2022/08/28 02:27:21;;;;;;;11.18;5.20;;;11.50;99.90;;;;;;5044045;28;20037;-30
2022/08/28 02:29:47;;;;;;;11.55;5.13;;;11.50;99.90;;;;;;5019031;28;20080;-29
2022/08/28 02:32:13;;;;;;;10.55;5.43;;;11.50;99.90;;;;;;5023156;28;20044;-29
2022/08/28 02:34:42;;;;;;;9.40;5.25;;;11.50;99.90;;;;;;5027784;28;20123;-29
2022/08/28 02:37:10;;;;;;;8.23;5.00;;;11.50;99.90;;;;;;5027571;28;20112;-30
2022/08/28 02:39:36;;;;;;;8.90;5.47;;;11.50;99.90;;;;;;5027338;28;20037;-30
2022/08/28 02:42:02;;;;;;;7.47;5.22;;;11.40;99.90;;;;;;5022146;28;20135;-30
2022/08/28 02:44:28;;;;;;;8.00;5.60;;;11.40;99.90;;;;;;5028934;28;20088;-30
2022/08/28 02:46:54;;;;;;;10.68;5.95;;;11.40;99.90;;;;;;5031113;28;20513;-32
2022/08/28 02:49:20;;;;;;;10.98;5.07;;;11.40;99.90;;;;;;5046818;28;20252;-32
2022/08/28 02:51:45;;;;;;;7.05;5.07;;;11.30;99.90;;;;;;5037848;28;20037;-31
2022/08/28 02:54:11;;;;;;;9.82;5.50;;;11.30;99.90;;;;;;5050554;28;20371;-31
2022/08/28 02:56:37;;;;;;;11.18;5.57;;;11.30;99.90;;;;;;5030541;28;20477;-33
2022/08/28 02:59:03;;;;;;;9.05;4.75;;;11.30;99.90;;;;;;5024942;28;20033;-34
2022/08/28 03:01:29;;;;;;;8.80;5.18;;;11.30;99.90;;;;;;5025537;28;20041;-31
2022/08/28 03:03:54;;;;;;;10.35;5.00;;;11.30;99.90;;;;;;5028198;28;20094;-30
2022/08/28 03:06:21;;;;;;;12.48;4.60;;;11.20;99.90;;;;;;5038744;28;20399;-30
2022/08/28 03:08:47;;;;;;;7.75;5.00;;;11.20;99.90;;;;;;5026646;28;20084;-32
2022/08/28 03:11:13;;;;;;;10.93;5.22;;;11.20;99.90;;;;;;5054096;28;20394;-30
2022/08/28 03:13:41;;;;;;;9.27;5.07;;;11.10;99.90;;;;;;5031243;28;20041;-32
2022/08/28 03:16:07;;;;;;;7.40;4.97;;;11.20;99.90;;;;;;5014287;28;20038;-31
2022/08/28 03:18:33;;;;;;;8.30;5.45;;;11.20;99.90;;;;;;5015279;28;20069;-31
2022/08/28 03:20:59;;;;;;;8.25;4.97;;;11.20;99.90;;;;;;5032786;28;20073;-32
2022/08/28 03:23:25;;;;;;;10.48;5.30;;;11.20;99.90;;;;;;5028298;28;20140;-33
2022/08/28 03:26:06;;;;;;;8.98;5.80;;;11.20;99.90;;;;;;5031036;28;20045;-32
2022/08/28 03:28:37;;;;;;;8.75;5.78;;;11.10;99.90;;;;;;5047818;28;20398;-32
2022/08/28 03:31:04;;;;;;;7.75;5.40;;;11.10;99.90;;;;;;5030658;28;20110;-30
2022/08/28 03:33:31;;;;;;;9.02;5.85;;;11.10;99.90;;;;;;5012843;28;20046;-33
2022/08/28 03:35:58;;;;;;;11.43;6.07;;;11.10;99.90;;;;;;5054947;28;20032;-33
2022/08/28 03:38:24;;;;;;;6.90;5.32;;;11.10;99.90;;;;;;5026116;28;20072;-31
2022/08/28 03:40:50;;;;;;;11.13;5.60;;;11.10;99.90;;;;;;5025088;28;20069;-32
2022/08/28 03:43:19;;;;;;;11.82;5.45;;;11.10;99.90;;;;;;5032311;28;20037;-31
2022/08/28 03:45:59;;;;;;;8.48;5.40;;;11.10;99.90;;;;;;5037628;28;20187;-33
2022/08/28 03:48:27;;;;;;;9.02;5.43;;;11.10;99.90;;;;;;5022558;28;20037;-31
2022/08/28 03:50:53;;;;;;;8.13;4.97;;;11.10;99.90;;;;;;5024621;28;20041;-31
2022/08/28 03:53:21;;;;;;;10.43;5.45;;;11.10;99.90;;;;;;5030982;28;20464;-31
2022/08/28 03:55:47;;;;;;;8.95;5.68;;;11.10;99.90;;;;;;5024474;28;20689;-31
2022/08/28 03:58:14;;;;;;;10.73;5.05;;;11.00;99.90;;;;;;5030677;28;20034;-31
2022/08/28 04:00:41;;;;;;;8.90;5.35;;;11.00;99.90;;;;;;5019932;28;20037;-31
2022/08/28 04:03:07;;;;;;;9.40;5.30;;;11.00;99.90;;;;;;5010447;28;20095;-32
2022/08/28 04:05:34;;;;;;;7.88;5.03;;;11.00;99.90;;;;;;5020061;28;20049;-32
2022/08/28 04:08:01;;;;;;;9.95;5.43;;;11.00;99.90;;;;;;5008493;28;20045;-32
2022/08/28 04:10:28;;;;;;;8.65;4.95;;;11.00;99.90;;;;;;5025660;28;20050;-31
2022/08/28 04:12:54;;;;;;;9.23;5.38;;;10.90;99.90;;;;;;5018184;28;20393;-31
2022/08/28 04:15:21;;;;;;;11.73;5.03;;;10.90;99.90;;;;;;5029692;28;20029;-30
2022/08/28 04:17:46;;;;;;;8.57;5.60;;;10.90;99.90;;;;;;5025546;28;20426;-32
2022/08/28 04:20:12;;;;;;;8.20;4.80;;;10.90;99.90;;;;;;5023282;28;20043;-32
2022/08/28 04:22:38;;;;;;;7.07;4.93;;;10.90;99.90;;;;;;5035314;28;20041;-29
2022/08/28 04:25:06;;;;;;;10.20;5.13;;;10.90;99.90;;;;;;5022181;28;20041;-30
2022/08/28 04:27:32;;;;;;;8.52;5.43;;;10.90;99.90;;;;;;5014895;28;20041;-31
2022/08/28 04:29:58;;;;;;;9.85;5.40;;;10.90;99.90;;;;;;5023110;28;20030;-31
2022/08/28 04:32:24;;;;;;;9.52;5.38;;;10.90;99.90;;;;;;5028821;28;20132;-30
2022/08/28 04:34:50;;;;;;;8.60;5.28;;;10.90;99.90;;;;;;5024944;28;20061;-32
2022/08/28 04:37:17;;;;;;;8.82;4.75;;;10.90;99.90;;;;;;5028656;28;20126;-31
2022/08/28 04:39:43;;;;;;;9.07;5.13;;;11.00;99.90;;;;;;5027509;28;20049;-32
2022/08/28 04:42:09;;;;;;;11.00;5.35;;;11.00;99.90;;;;;;5013567;28;20120;-33
2022/08/28 04:44:34;;;;;;;9.65;5.47;;;11.00;99.90;;;;;;5034377;28;20122;-31
2022/08/28 04:47:01;;;;;;;9.60;5.15;;;11.10;99.90;;;;;;5032812;28;20113;-31
2022/08/28 04:49:27;;;;;;;10.07;5.70;;;11.10;99.90;;;;;;5039088;28;20069;-31
2022/08/28 04:51:53;;;;;;;7.85;5.00;;;11.10;99.90;;;;;;5044824;28;20037;-30
2022/08/28 04:54:19;;;;;;;11.50;5.03;;;11.00;99.90;;;;;;5031985;28;20033;-31
2022/08/28 04:56:45;;;;;;;8.13;4.97;;;11.00;99.90;;;;;;5026111;28;20033;-31
2022/08/28 04:59:11;;;;;;;9.35;4.68;;;11.00;99.90;;;;;;5025036;28;20527;-30
2022/08/28 05:01:40;;;;;;;6.25;4.75;;;11.00;99.90;;;;;;5016310;28;20053;-31
2022/08/28 05:04:06;;;;;;;8.30;5.10;;;11.00;99.90;;;;;;5027306;28;20099;-32
2022/08/28 05:06:32;;;;;;;9.35;5.18;;;11.00;99.90;;;;;;5027390;28;20450;-31
2022/08/28 05:09:01;;;;;;;11.23;5.00;;;11.00;99.90;;;;;;5026718;28;20038;-33
2022/08/28 05:11:29;;;;;;;9.02;4.90;;;11.10;99.90;;;;;;5024672;28;20084;-32
2022/08/28 05:13:55;;;;;;;9.52;5.28;;;11.10;99.90;;;;;;5025550;28;20077;-31
2022/08/28 05:16:21;;;;;;;7.20;5.38;;;11.10;99.90;;;;;;5020350;28;20072;-31
2022/08/28 05:18:48;;;;;;;9.82;5.53;;;11.10;99.90;;;;;;5023984;28;20484;-32
2022/08/28 05:21:20;;;;;;;11.05;5.18;;;11.20;99.90;;;;;;5023318;28;20041;-31
2022/08/28 05:23:48;;;;;;;7.57;5.13;;;11.20;99.90;;;;;;5028065;28;20096;-33
2022/08/28 05:26:16;;;;;;;11.27;5.70;;;11.20;99.90;;;;;;5025596;28;20099;-32
2022/08/28 05:28:42;;;;;;;9.43;4.90;;;11.20;99.90;;;;;;5027535;28;20527;-31
2022/08/28 05:31:16;;;;;;;7.53;4.85;;;11.30;99.90;;;;;;5031599;28;20300;-30
2022/08/28 05:33:43;;;;;;;9.43;5.40;;;11.30;99.90;;;;;;5042306;28;20038;-31
2022/08/28 05:36:09;;;;;;;9.63;5.32;;;11.40;99.90;;;;;;5047971;28;20065;-32
2022/08/28 05:38:36;;;;;;;8.23;4.72;;;11.50;99.90;;;;;;5040577;28;20022;-30
2022/08/28 05:41:03;;;;;;;6.70;4.38;;;11.50;99.90;;;;;;5009867;28;20139;-33
2022/08/28 05:43:30;;;;;;;8.50;4.53;;;11.60;99.90;;;;;;5026378;28;20048;-31
2022/08/28 05:46:03;;;;;;;11.45;4.72;;;11.60;99.90;;;;;;5037556;28;20585;-30
2022/08/28 05:48:30;;;;;;;7.78;4.65;;;11.60;99.90;;;;;;5023032;28;20196;-31
2022/08/28 05:51:11;;;;;;;9.15;4.68;;;11.60;99.90;;;;;;5030619;28;20045;-31
2022/08/28 05:53:40;;;;;;;7.25;4.22;;;11.70;99.90;;;;;;5031223;28;20580;-31
2022/08/28 05:56:12;;;;;;;8.32;4.18;;;11.60;99.90;;;;;;5025061;28;20405;-31
2022/08/28 05:58:39;;;;;;;10.63;4.80;;;11.70;99.90;;;;;;5037341;28;20068;-31
2022/08/28 06:01:12;;;;;;;7.45;3.80;;;11.70;99.90;;;;;;5025993;28;20033;-31
2022/08/28 06:03:40;;;;;;;11.80;4.30;;;11.90;99.90;;;;;;5028451;28;20048;-31
2022/08/28 06:06:08;;;;;;;7.85;3.97;;;12.00;99.90;;;;;;5041617;28;20042;-31
2022/08/28 06:08:35;;;;;;;10.15;4.55;;;12.10;99.90;;;;;;5041179;28;20534;-31
2022/08/28 06:11:01;;;;;;;5.90;3.60;;;12.20;99.90;;;;;;5028586;28;20648;-31
2022/08/28 06:13:28;;;;;;;10.05;4.00;;;12.20;99.90;;;;;;5043627;28;20095;-31
2022/08/28 06:15:55;;;;;;;7.13;3.47;;;12.30;99.90;;;;;;5038006;28;20034;-32
2022/08/28 06:18:21;;;;;;;6.18;3.72;;;12.30;99.90;;;;;;5019140;28;20172;-31
2022/08/28 06:20:47;;;;;;;7.03;3.58;;;12.40;99.90;;;;;;5039802;28;20124;-31
2022/08/28 06:23:18;;;;;;;7.45;3.85;;;12.40;99.90;;;;;;5019824;28;20442;-30
2022/08/28 06:25:47;;;;;;;8.20;3.63;;;12.50;99.90;;;;;;5031722;28;20107;-31
2022/08/28 06:28:22;;;;;;;6.97;4.15;;;12.60;99.90;;;;;;5022680;28;20038;-32
2022/08/28 06:30:49;;;;;;;7.65;3.70;;;12.60;99.90;;;;;;5024669;28;20037;-31
2022/08/28 06:33:16;;;;;;;6.68;3.10;;;12.80;99.90;;;;;;5025929;28;20043;-31
2022/08/28 06:35:45;;;;;;;7.05;3.75;;;12.80;99.90;;;;;;5026804;28;20519;-31
2022/08/28 06:38:11;;;;;;;5.82;2.95;;;12.90;99.90;;;;;;5043503;28;20073;-32
2022/08/28 06:40:49;;;;;;;6.90;3.33;;;13.00;99.90;;;;;;5042310;28;20044;-31
2022/08/28 06:43:17;;;;;;;7.88;3.75;;;13.10;99.90;;;;;;5015730;28;20038;-31
2022/08/28 06:45:45;;;;;;;5.45;3.10;;;13.10;99.90;;;;;;5025710;28;20073;-31
2022/08/28 06:48:16;;;;;;;7.18;3.28;;;13.20;99.90;;;;;;5022818;28;20041;-31
2022/08/28 06:50:48;;;;;;;12.63;3.60;;;13.30;99.90;;;;;;5023893;28;20135;-31
2022/08/28 06:53:16;;;;;;;7.85;3.58;;;13.40;99.90;;;;;;5018449;28;20069;-31
2022/08/28 06:55:42;;;;;;;7.80;3.47;;;13.40;99.90;;;;;;5022483;28;20053;-31
2022/08/28 06:58:09;;;;;;;7.40;3.65;;;13.50;99.90;;;;;;5030769;28;20125;-31
2022/08/28 07:00:36;;;;;;;7.25;3.45;;;13.60;99.90;;;;;;5020153;28;20076;-31
2022/08/28 07:03:04;;;;;;;5.00;3.45;;;13.70;99.90;;;;;;5021329;28;20099;-31
2022/08/28 07:05:32;;;;;;;7.28;3.45;;;13.80;99.90;;;;;;5026541;28;20320;-31
2022/08/28 07:07:58;;;;;;;9.60;3.80;;;13.80;99.90;;;;;;5040984;28;20039;-31
2022/08/28 07:10:26;;;;;;;9.15;3.45;;;13.90;99.90;;;;;;5029678;28;20124;-31
2022/08/28 07:12:52;;;;;;;9.70;3.05;;;14.10;99.90;;;;;;5024509;28;20064;-31
2022/08/28 07:15:18;;;;;;;6.20;3.20;;;14.20;99.90;;;;;;5029371;28;20069;-30
2022/08/28 07:17:44;;;;;;;8.35;3.45;;;14.40;99.90;;;;;;5029953;28;20107;-33
2022/08/28 07:20:10;;;;;;;8.85;3.03;;;14.50;99.90;;;;;;5029950;28;20133;-33
2022/08/28 07:22:39;;;;;;;7.20;2.40;;;14.60;99.90;;;;;;5029083;28;20029;-32
2022/08/28 07:25:07;;;;;;;6.60;2.40;;;14.70;99.90;;;;;;5030415;28;20044;-32
2022/08/28 07:27:33;;;;;;;6.53;2.60;;;14.80;99.90;;;;;;5029207;28;20084;-31
2022/08/28 07:30:00;;;;;;;8.70;3.00;;;14.90;99.90;;;;;;5031802;28;20092;-31
2022/08/28 07:32:27;;;;;;;6.28;2.42;;;15.00;99.90;;;;;;5036726;28;20190;-31
2022/08/28 07:34:55;;;;;;;6.80;2.50;;;15.20;99.90;;;;;;5030945;28;20029;-31
2022/08/28 07:37:22;;;;;;;8.77;2.38;;;15.30;99.90;;;;;;5026905;28;20056;-32
2022/08/28 07:39:48;;;;;;;5.97;2.30;;;15.50;99.90;;;;;;5038496;28;20121;-33
2022/08/28 07:44:48;;;;;;;8.57;2.47;;;15.60;99.90;;;;;;5022440;28;20121;-33
2022/08/28 07:45:01;;;;;;;7.03;2.45;;;15.90;99.90;;;;;;5026948;28;20513;-30
2022/08/28 07:47:30;;;;;;;6.43;2.22;;;16.20;99.90;;;;;;5034843;28;20491;-35
2022/08/28 07:49:59;;;;;;;5.38;2.15;;;16.40;99.90;;;;;;5031680;28;20037;-30
2022/08/28 07:52:27;;;;;;;7.88;2.20;;;16.70;99.90;;;;;;5008399;28;20053;-34
2022/08/28 07:54:54;;;;;;;6.80;2.20;;;17.00;99.90;;;;;;5043571;28;20129;-33
2022/08/28 07:57:20;;;;;;;5.10;1.75;;;17.30;99.90;;;;;;5031740;28;20033;-33
2022/08/28 07:59:47;;;;;;;7.03;2.17;;;17.60;99.90;;;;;;5017374;28;20615;-33
2022/08/28 08:02:14;;;;;;;11.63;2.45;;;17.80;99.90;;;;;;5018591;28;20067;-32
2022/08/28 08:04:40;;;;;;;9.65;2.08;;;18.10;99.90;;;;;;5030069;28;20383;-34
2022/08/28 08:07:07;;;;;;;5.90;2.00;;;18.40;99.90;;;;;;5033338;28;20040;-33
2022/08/28 08:09:41;;;;;;;6.15;2.00;;;18.70;99.90;;;;;;5030464;28;20056;-34
2022/08/28 08:12:08;;;;;;;8.73;1.90;;;18.90;99.90;;;;;;5021930;28;20037;-30
2022/08/28 08:14:35;;;;;;;6.03;1.98;;;19.10;99.90;;;;;;5024250;28;20041;-33
2022/08/28 08:17:02;;;;;;;5.63;1.90;;;19.30;99.90;;;;;;5017112;28;20037;-33
2022/08/28 08:19:28;;;;;;;5.07;1.88;;;19.50;99.90;;;;;;5026710;28;20038;-33
2022/08/28 08:21:55;;;;;;;7.88;2.30;;;19.30;99.90;;;;;;5030390;28;20033;-33
2022/08/28 08:24:24;;;;;;;6.35;1.95;;;19.30;99.90;;;;;;5024156;28;20107;-35
2022/08/28 08:26:52;;;;;;;7.72;1.60;;;19.30;99.90;;;;;;5022398;28;20041;-37
2022/08/28 08:29:19;;;;;;;5.78;1.90;;;19.40;99.90;;;;;;5033705;28;20040;-36
2022/08/28 08:31:46;;;;;;;4.00;1.58;;;19.30;99.90;;;;;;5037331;28;20414;-33
2022/08/28 08:34:11;;;;;;;4.80;1.85;;;19.40;99.90;;;;;;5028392;28;20042;-34
2022/08/28 08:36:38;;;;;;;6.57;1.90;;;19.30;99.90;;;;;;5030133;28;20098;-33
2022/08/28 08:39:06;;;;;;;4.32;2.22;;;19.50;99.90;;;;;;5027227;28;20048;-33
2022/08/28 08:41:32;;;;;;;4.35;1.77;;;19.80;99.90;;;;;;5047659;28;20071;-31
2022/08/28 08:44:22;;;;;;;4.90;1.90;;;20.10;99.90;;;;;;5032182;28;20034;-30
2022/08/28 08:47:13;;;;;;;4.47;1.67;;;20.50;99.90;;;;;;5018625;28;20491;-30
2022/08/28 08:49:51;;;;;;;5.78;1.88;;;20.90;99.90;;;;;;5019261;28;20103;-34
2022/08/28 08:52:50;;;;;;;5.28;1.88;;;21.30;99.90;;;;;;5026217;28;20044;-34
2022/08/28 08:55:15;;;;;;;6.85;2.22;;;21.60;99.90;;;;;;5021047;28;20499;-34
2022/08/28 08:57:44;;;;;;;5.75;1.90;;;22.10;99.90;;;;;;5017804;28;20053;-33
2022/08/28 09:00:12;;;;;;;5.47;1.90;;;22.30;99.90;;;;;;5034396;28;20030;-32
2022/08/28 09:02:55;;;;;;;4.43;1.40;;;22.50;99.90;;;;;;5021416;28;20040;-32
2022/08/28 09:05:36;;;;;;;4.40;1.65;;;22.90;99.40;;;;;;5021011;28;20126;-31
2022/08/28 09:08:03;;;;;;;6.78;1.73;;;23.00;99.60;;;;;;5024979;28;20092;-31
2022/08/28 09:10:41;;;;;;;6.68;1.70;;;23.30;99.90;;;;;;5049916;28;20052;-31
2022/08/28 09:13:11;;;;;;;5.40;1.70;;;23.50;92.00;;;;;;5028860;28;20065;-31
2022/08/28 09:15:44;;;;;;;4.65;1.70;;;23.80;95.90;;;;;;5031897;28;20087;-31
2022/08/28 09:18:24;;;;;;;2.40;1.40;;;23.80;91.90;;;;;;5014176;28;20042;-31
2022/08/28 09:20:57;;;;;;;4.15;1.88;;;23.50;91.50;;;;;;5029515;28;20037;-34
2022/08/28 09:23:24;;;;;;;4.37;1.57;;;23.50;88.60;;;;;;5029918;28;20053;-33
2022/08/28 09:26:10;;;;;;;7.65;1.70;;;23.90;91.40;;;;;;5031527;28;20037;-35
2022/08/28 09:28:39;;;;;;;5.03;1.70;;;24.50;81.10;;;;;;5033236;28;20045;-34
2022/08/28 09:31:08;;;;;;;5.13;2.25;;;24.30;77.80;;;;;;5033602;28;20113;-35
2022/08/28 09:33:47;;;;;;;4.90;1.60;;;23.80;79.00;;;;;;5041233;28;20099;-36
2022/08/28 09:36:24;;;;;;;5.03;1.73;;;23.40;79.30;;;;;;5026377;28;20037;-34
2022/08/28 09:39:13;;;;;;;4.43;1.50;;;23.50;77.20;;;;;;5040302;28;20120;-34
2022/08/28 09:45:01;;;;;;;3.58;1.83;;;23.60;76.40;;;;;;5025247;28;20042;-36
2022/08/28 09:47:47;;;;;;;4.35;1.90;;;23.70;80.80;;;;;;5047968;28;20045;-35
2022/08/28 09:50:34;;;;;;;5.65;1.70;;;23.60;70.00;;;;;;5045632;28;20062;-33
2022/08/28 09:53:10;;;;;;;4.10;1.48;;;23.10;75.20;;;;;;5047019;28;20037;-32
2022/08/28 09:56:12;;;;;;;4.38;1.85;;;23.00;79.80;;;;;;5034169;28;20049;-30
2022/08/28 09:58:43;;;;;;;3.92;1.95;;;23.30;77.00;;;;;;5034924;28;20513;-32
2022/08/28 10:01:33;;;;;;;4.18;1.85;;;23.60;74.70;;;;;;5032796;28;20044;-32
2022/08/28 10:04:21;;;;;;;4.25;2.17;;;23.80;70.70;;;;;;5014122;28;20041;-32
2022/08/28 10:06:55;;;;;;;5.38;1.83;;;23.20;67.30;;;;;;5028419;28;20037;-34
2022/08/28 10:09:22;;;;;;;3.20;1.52;;;23.10;75.10;;;;;;5024377;28;20033;-33
2022/08/28 10:12:05;;;;;;;4.40;1.67;;;23.30;77.60;;;;;;5029789;28;20046;-33
2022/08/28 10:15:18;;;;;;;4.72;1.90;;;23.30;68.80;;;;;;5026848;28;20073;-32
2022/08/28 10:18:02;;;;;;;3.40;2.08;;;23.80;67.50;;;;;;4966525;28;20041;-31
2022/08/28 10:20:50;;;;;;;5.18;1.90;;;24.60;65.10;;;;;;4958045;28;20050;-33
2022/08/28 10:23:44;;;;;;;3.55;1.45;;;24.70;61.90;;;;;;4954246;29;20075;-34
2022/08/28 10:26:54;;;;;;;5.13;1.77;;;25.30;61.40;;;;;;4972310;28;20109;-33
2022/08/28 10:30:03;;;;;;;3.53;1.80;;;25.70;56.60;;;;;;5001600;28;20141;-33
2022/08/28 10:32:58;;;;;;;3.60;1.67;;;26.10;59.50;;;;;;5036352;28;20041;-33
2022/08/28 10:35:40;;;;;;;3.42;1.70;;;26.30;57.10;;;;;;5048555;28;20052;-32
2022/08/28 10:38:11;;;;;;;3.30;1.50;;;26.40;55.90;;;;;;5025388;28;20072;-32
2022/08/28 10:41:07;;;;;;;5.50;1.58;;;26.10;57.30;;;;;;5068839;28;20702;-31
2022/08/28 10:43:39;;;;;;;4.93;1.95;;;25.40;52.40;;;;;;5061558;28;20053;-33
2022/08/28 10:46:15;;;;;;;2.60;1.65;;;24.80;54.40;;;;;;5048901;28;20041;-32
2022/08/28 10:48:53;;;;;;;2.58;1.60;;;25.10;55.50;;;;;;5045972;28;20045;-34
2022/08/28 10:51:46;;;;;;;5.20;1.67;;;25.60;56.00;;;;;;5049219;28;20045;-33
2022/08/28 10:54:21;;;;;;;;;;;26.30;55.80;;;;;;5025402;28;20124;-31
2022/08/28 10:57:08;;;;;;;4.93;1.75;;;26.60;52.80;;;;;;5061648;28;20002;-34
2022/08/28 10:59:35;;;;;;;3.00;1.75;;;26.80;53.80;;;;;;5051739;28;20079;-33
2022/08/28 11:02:05;;;;;;;4.63;1.90;;;26.90;53.70;;;;;;5052046;28;20040;-32
2022/08/28 11:04:31;;;;;;;3.72;1.90;;;26.20;51.40;;;;;;5043898;28;20033;-32
2022/08/28 11:07:06;;;;;;;5.93;1.70;;;25.50;52.40;;;;;;5041214;28;20040;-33
2022/08/28 11:09:37;;;;;;;4.88;1.95;;;25.00;53.00;;;;;;5046075;28;20068;-33
2022/08/28 11:12:18;;;;;;;4.05;1.98;;;24.50;54.60;;;;;;5018322;28;20045;-33
2022/08/28 11:14:52;;;;;;;2.55;1.67;;;25.10;56.60;;;;;;5022337;28;20040;-34
2022/08/28 11:17:24;;;;;;;3.83;1.90;;;25.60;54.30;;;;;;5038839;28;20116;-32
2022/08/28 11:20:11;;;;;;;3.63;1.73;;;25.80;52.60;;;;;;5055845;28;20037;-31
2022/08/28 11:23:11;;;;;;;5.22;1.95;;;26.30;50.80;;;;;;5066242;28;20090;-33
2022/08/28 11:25:49;;;;;;;3.45;1.95;;;26.80;48.90;;;;;;5029000;28;20088;-32
2022/08/28 11:28:42;;;;;;;5.70;1.77;;;26.40;49.00;;;;;;5044899;28;20045;-33
2022/08/28 11:31:09;;;;;;;4.65;1.83;;;25.80;50.00;;;;;;5030488;28;20045;-31
2022/08/28 11:33:51;;;;;;;2.97;1.60;;;25.00;51.10;;;;;;5030655;28;20040;-32
2022/08/28 11:36:20;;;;;;;4.28;1.90;;;24.30;51.40;;;;;;5027272;28;20044;-33
2022/08/28 11:38:55;;;;;;;3.05;1.50;;;24.40;53.60;;;;;;5028872;28;20038;-33
2022/08/28 11:41:28;;;;;;;3.63;1.92;;;24.90;54.20;;;;;;5027784;28;20487;-33
2022/08/28 11:44:12;;;;;;;4.72;1.90;;;25.90;54.10;;;;;;5047447;28;20052;-32
2022/08/28 11:46:46;;;;;;;4.78;1.92;;;26.70;52.90;;;;;;5029176;28;20049;-34
2022/08/28 11:49:33;;;;;;;4.38;1.88;;;26.40;50.20;;;;;;5011125;28;20041;-31
2022/08/28 11:52:23;;;;;;;4.30;1.70;;;25.80;50.30;;;;;;5025192;28;20076;-31
2022/08/28 11:55:08;;;;;;;4.60;1.67;;;25.10;50.60;;;;;;5028164;28;20034;-31
2022/08/28 11:58:02;;;;;;;4.00;1.60;;;24.70;51.20;;;;;;5022111;28;20069;-31
2022/08/28 12:00:52;;;;;;;4.28;2.10;;;25.10;52.70;;;;;;5019907;28;20050;-31
2022/08/28 12:03:30;;;;;;;3.22;1.90;;;26.20;52.70;;;;;;5025796;28;20434;-31
2022/08/28 12:05:59;;;;;;;3.65;2.03;;;26.60;50.80;;;;;;5006115;28;20049;-32
2022/08/28 12:08:43;;;;;;;4.55;1.85;;;27.20;48.40;;;;;;5029430;28;20081;-31
2022/08/28 12:11:30;;;;;;;5.78;2.00;;;28.10;49.30;;;;;;5023358;28;20475;-31
2022/08/28 12:13:57;;;;;;;5.03;1.85;;;28.00;48.30;;;;;;5035241;28;20088;-30
2022/08/28 12:16:23;;;;;;;4.50;1.83;;;27.30;47.40;;;;;;5043808;28;20033;-31
2022/08/28 12:18:49;;;;;;;3.45;1.65;;;26.80;47.30;;;;;;5033441;28;20468;-31
2022/08/28 12:21:24;;;;;;;4.30;1.80;;;26.10;47.90;;;;;;5029042;28;20399;-33
2022/08/28 12:23:56;;;;;;;6.07;1.90;;;25.70;48.30;;;;;;5031134;28;20041;-30
2022/08/28 12:26:27;;;;;;;3.87;1.70;;;25.50;49.20;;;;;;5000907;28;20049;-32
2022/08/28 12:29:00;;;;;;;2.28;1.55;;;26.30;51.00;;;;;;5047062;28;20112;-32
2022/08/28 12:34:52;;;;;;;5.15;2.15;;;27.30;46.60;;;;;;5026888;28;20087;-31
2022/08/28 12:37:32;;;;;;;2.75;1.60;;;27.80;46.20;;;;;;5046481;28;20502;-32
2022/08/28 12:40:06;;;;;;;5.65;1.90;;;28.60;45.80;;;;;;5023491;28;20034;-31
2022/08/28 12:42:36;;;;;;;2.58;1.70;;;28.50;45.20;;;;;;5029468;28;20506;-31
2022/08/28 12:45:06;;;;;;;3.08;1.55;;;29.10;45.80;;;;;;5036583;28;20038;-31
2022/08/28 12:47:33;;;;;;;2.80;1.70;;;29.30;45.70;;;;;;5031149;28;20045;-34
2022/08/28 12:50:19;;;;;;;3.67;1.60;;;29.00;43.40;;;;;;5039424;28;20033;-35
2022/08/28 12:52:51;;;;;;;3.05;1.65;;;28.80;43.10;;;;;;5022780;28;20034;-34
2022/08/28 12:55:18;;;;;;;4.77;1.80;;;28.90;42.60;;;;;;5033140;28;20125;-34
2022/08/28 12:57:45;;;;;;;2.55;1.60;;;29.60;43.50;;;;;;5044775;28;20037;-34
2022/08/28 13:00:16;;;;;;;3.42;1.90;;;29.10;41.70;;;;;;5044158;28;20117;-33
2022/08/28 13:02:46;;;;;;;4.13;1.55;;;28.10;41.30;;;;;;5015786;28;20404;-31
2022/08/28 13:05:34;;;;;;;8.15;2.13;;;27.40;43.20;;;;;;4998342;28;20041;-31
2022/08/28 13:08:10;;;;;;;3.95;1.50;;;28.00;43.90;;;;;;5015854;28;20121;-31
2022/08/28 13:10:50;;;;;;;4.78;1.80;;;29.10;44.00;;;;;;5017829;28;20041;-34
2022/08/28 13:13:25;;;;;;;2.22;1.60;;;29.70;40.70;;;;;;5030532;28;20033;-33